Time;durP1;ratioP1;P1;durP2;ratioP2;P2;SDS_P1;SDS_P2;PMS_P1;PMS_P2;Temp;Humidity;BMP_temperature;BMP_pressure;BME280_temperature;BME280_humidity;BME280_pressure;Samples;Min_cycle;Max_cycle;Signal;HPM_P1;HPM_P2
2022/01/28 00:04:45;;;;;;;5.10;2.27;;;5.40;99.90;;;;;;5042537;28;20181;-62
2022/01/28 00:07:10;;;;;;;7.57;3.43;;;5.50;99.90;;;;;;5043274;28;21091;-63
2022/01/28 00:09:36;;;;;;;3.93;1.20;;;5.50;99.90;;;;;;5044483;28;20379;-68
2022/01/28 00:12:02;;;;;;;2.13;1.17;;;5.40;99.90;;;;;;5039832;28;20186;-62
2022/01/28 00:14:36;;;;;;;4.20;1.00;;;5.40;99.90;;;;;;5048028;28;20188;-65
2022/01/28 00:38:48;;;;;;;6.47;1.70;;;5.30;99.90;;;;;;5044303;28;20251;-63
2022/01/28 00:41:15;;;;;;;10.43;1.40;;;5.30;99.90;;;;;;5041501;28;20275;-63
2022/01/28 00:43:41;;;;;;;3.00;1.13;;;5.30;99.90;;;;;;5039942;28;20193;-62
2022/01/28 00:46:07;;;;;;;6.57;0.97;;;5.30;99.90;;;;;;5043952;28;20209;-64
2022/01/28 00:48:33;;;;;;;4.17;0.90;;;5.30;99.90;;;;;;5038466;28;20191;-62
2022/01/28 00:50:59;;;;;;;4.30;1.63;;;5.30;99.90;;;;;;5043033;28;20535;-63
2022/01/28 00:53:24;;;;;;;3.30;1.30;;;5.30;99.90;;;;;;5039985;28;20184;-63
2022/01/28 00:55:50;;;;;;;2.83;0.97;;;5.30;99.90;;;;;;5043632;28;20703;-62
2022/01/28 00:58:16;;;;;;;3.53;1.03;;;5.30;99.90;;;;;;5039051;28;20637;-63
2022/01/28 01:00:41;;;;;;;3.67;0.67;;;5.30;99.90;;;;;;5040957;28;20189;-61
2022/01/28 01:03:08;;;;;;;2.80;1.07;;;5.30;99.90;;;;;;5043095;28;20194;-64
2022/01/28 01:05:34;;;;;;;2.30;1.20;;;5.20;99.90;;;;;;5037783;28;20603;-68
2022/01/28 01:08:04;;;;;;;2.50;1.07;;;5.30;99.90;;;;;;5041041;28;20667;-62
2022/01/28 01:10:30;;;;;;;11.63;1.37;;;5.30;99.90;;;;;;5042854;28;20180;-63
2022/01/28 01:12:56;;;;;;;5.57;1.47;;;5.30;99.90;;;;;;5042245;28;20188;-63
2022/01/28 01:15:26;;;;;;;4.03;1.20;;;5.30;99.90;;;;;;5041494;28;20180;-63
2022/01/28 01:23:22;;;;;;;2.77;0.77;;;5.30;99.90;;;;;;5040094;28;20204;-64
2022/01/28 01:28:38;;;;;;;5.30;1.13;;;5.10;99.90;;;;;;5038963;28;20241;-64
2022/01/28 01:31:07;;;;;;;1.53;1.00;;;5.20;99.90;;;;;;5052738;28;20847;-64
2022/01/28 01:33:48;;;;;;;4.00;1.50;;;5.30;99.90;;;;;;5039262;28;20294;-62
2022/01/28 01:36:14;;;;;;;3.83;1.27;;;5.30;99.90;;;;;;5037065;28;20239;-63
2022/01/28 01:38:41;;;;;;;2.27;1.03;;;5.20;99.90;;;;;;5038510;28;20187;-63
2022/01/28 01:41:15;;;;;;;3.07;1.30;;;5.20;99.90;;;;;;5036370;28;20287;-64
2022/01/28 01:43:57;;;;;;;4.80;1.53;;;5.20;99.90;;;;;;5038608;28;20519;-63
2022/01/28 01:52:06;;;;;;;5.70;1.73;;;5.30;99.90;;;;;;5039077;28;20180;-62
2022/01/28 01:54:43;;;;;;;6.17;1.70;;;5.20;99.90;;;;;;5037572;28;20668;-62
2022/01/28 01:57:12;;;;;;;6.50;1.53;;;5.20;99.90;;;;;;5036499;28;20181;-63
2022/01/28 01:59:39;;;;;;;3.77;1.33;;;5.20;99.90;;;;;;5036594;28;20192;-65
2022/01/28 02:02:06;;;;;;;6.33;1.70;;;5.20;99.90;;;;;;5035939;28;20169;-62
2022/01/28 02:04:32;;;;;;;6.73;1.73;;;5.30;99.90;;;;;;5039595;28;20203;-63
2022/01/28 02:06:59;;;;;;;4.70;1.27;;;5.20;99.90;;;;;;5035220;28;20218;-63
2022/01/28 02:09:25;;;;;;;4.07;1.47;;;5.20;99.90;;;;;;5038837;28;20469;-64
2022/01/28 02:11:51;;;;;;;5.33;1.47;;;5.20;99.90;;;;;;5040315;28;20186;-64
2022/01/28 02:14:17;;;;;;;10.00;2.30;;;5.20;99.90;;;;;;5037873;28;20209;-62
2022/01/28 02:16:42;;;;;;;5.40;1.23;;;5.20;99.90;;;;;;5037850;28;20541;-64
2022/01/28 02:19:08;;;;;;;4.73;1.67;;;5.20;99.90;;;;;;5044582;28;20190;-66
2022/01/28 02:21:43;;;;;;;4.30;1.50;;;5.30;99.90;;;;;;5045920;28;20191;-61
2022/01/28 02:24:09;;;;;;;4.80;1.30;;;5.30;99.90;;;;;;5043704;28;20201;-62
2022/01/28 02:26:36;;;;;;;1.67;1.07;;;5.20;99.90;;;;;;5042085;28;20199;-62
2022/01/28 02:29:09;;;;;;;4.47;1.40;;;5.20;99.90;;;;;;5038903;28;20200;-63
2022/01/28 02:31:35;;;;;;;2.80;1.40;;;5.10;99.90;;;;;;5048592;28;20620;-62
2022/01/28 02:34:01;;;;;;;2.83;1.00;;;5.10;99.90;;;;;;5047353;28;20187;-61
2022/01/28 02:36:27;;;;;;;7.13;1.70;;;5.00;99.90;;;;;;5050461;28;20233;-64
2022/01/28 02:38:54;;;;;;;2.90;1.20;;;5.00;99.90;;;;;;5042544;28;20272;-63
2022/01/28 02:41:20;;;;;;;3.47;1.47;;;5.00;99.90;;;;;;5040990;28;20179;-62
2022/01/28 02:44:04;;;;;;;3.70;1.27;;;5.00;99.90;;;;;;5037330;28;20175;-62
2022/01/28 02:46:32;;;;;;;2.13;1.03;;;5.00;99.90;;;;;;5045375;28;20201;-64
2022/01/28 02:49:15;;;;;;;7.10;1.83;;;4.90;99.90;;;;;;5041574;28;20176;-63
2022/01/28 02:51:43;;;;;;;4.03;1.27;;;5.00;99.90;;;;;;5040546;28;20628;-63
2022/01/28 02:54:15;;;;;;;1.30;1.00;;;5.00;99.90;;;;;;5038161;28;20171;-64
2022/01/28 02:56:52;;;;;;;8.50;1.67;;;5.10;99.90;;;;;;5040568;28;20253;-63
2022/01/28 02:59:18;;;;;;;10.33;1.97;;;4.90;99.90;;;;;;5075057;28;20184;-63
2022/01/28 03:01:45;;;;;;;4.47;1.30;;;5.00;99.90;;;;;;5036041;28;20246;-63
2022/01/28 03:04:23;;;;;;;6.37;1.20;;;5.00;99.90;;;;;;5038616;28;20567;-63
2022/01/28 03:06:49;;;;;;;4.37;1.20;;;5.00;99.90;;;;;;5039554;28;20599;-62
2022/01/28 03:09:19;;;;;;;2.97;1.40;;;5.00;99.90;;;;;;5041257;28;20182;-63
2022/01/28 03:11:49;;;;;;;4.97;1.60;;;5.00;99.90;;;;;;5040962;28;20245;-65
2022/01/28 03:14:19;;;;;;;4.00;1.03;;;5.00;99.90;;;;;;5038942;28;20633;-63
2022/01/28 03:16:59;;;;;;;4.73;1.30;;;4.90;99.90;;;;;;5041484;28;20186;-63
2022/01/28 03:19:28;;;;;;;3.30;1.20;;;4.90;99.90;;;;;;5042216;28;20507;-63
2022/01/28 03:21:55;;;;;;;3.50;1.30;;;4.90;99.90;;;;;;5039160;28;20634;-62
2022/01/28 03:24:26;;;;;;;3.90;1.20;;;4.90;99.90;;;;;;5042638;28;20180;-64
2022/01/28 03:26:58;;;;;;;4.33;1.23;;;5.00;99.90;;;;;;5039448;28;20195;-63
2022/01/28 03:29:24;;;;;;;3.50;1.37;;;4.90;99.90;;;;;;5042011;28;20194;-63
2022/01/28 03:31:50;;;;;;;3.63;1.23;;;5.00;99.90;;;;;;5036733;28;20213;-63
2022/01/28 03:34:20;;;;;;;1.80;0.97;;;5.00;99.90;;;;;;5038956;28;20201;-62
2022/01/28 03:36:46;;;;;;;4.93;1.70;;;4.90;99.90;;;;;;5043690;28;20273;-63
2022/01/28 03:39:12;;;;;;;6.13;1.37;;;4.90;99.90;;;;;;5038232;28;20218;-64
2022/01/28 03:41:38;;;;;;;1.87;0.90;;;4.90;99.90;;;;;;5041295;28;20191;-64
2022/01/28 03:44:04;;;;;;;4.23;1.57;;;4.90;99.90;;;;;;5040856;28;20199;-62
2022/01/28 03:46:30;;;;;;;3.33;1.20;;;5.00;99.90;;;;;;5039180;28;20205;-63
2022/01/28 03:48:56;;;;;;;3.50;1.53;;;4.90;99.90;;;;;;5042929;28;20192;-64
2022/01/28 03:51:22;;;;;;;2.73;1.03;;;4.90;99.90;;;;;;5040822;28;20179;-63
2022/01/28 03:53:49;;;;;;;11.20;1.27;;;5.00;99.90;;;;;;5041800;28;20186;-62
2022/01/28 03:56:16;;;;;;;4.20;1.20;;;5.00;99.90;;;;;;5045454;28;20185;-63
2022/01/28 03:58:42;;;;;;;7.03;1.00;;;5.00;99.90;;;;;;5044062;28;20928;-65
2022/01/28 04:01:15;;;;;;;4.13;1.27;;;5.20;99.90;;;;;;5039728;28;20187;-63
2022/01/28 04:03:48;;;;;;;5.27;1.30;;;5.10;99.90;;;;;;5039487;28;20179;-62
2022/01/28 04:11:50;;;;;;;6.13;1.50;;;5.20;99.90;;;;;;5039038;28;20174;-62
2022/01/28 04:14:32;;;;;;;4.63;1.30;;;5.20;99.90;;;;;;5041419;28;20644;-63
2022/01/28 04:19:33;;;;;;;7.10;1.60;;;5.20;99.90;;;;;;5039317;28;20193;-63
2022/01/28 04:21:59;;;;;;;6.17;1.67;;;5.20;99.90;;;;;;5041838;28;20181;-62
2022/01/28 04:24:25;;;;;;;9.63;1.60;;;5.20;99.90;;;;;;5042389;28;20200;-62
2022/01/28 04:26:51;;;;;;;6.17;1.73;;;5.20;99.90;;;;;;5039343;28;20225;-71
2022/01/28 04:29:16;;;;;;;5.63;1.57;;;5.20;99.90;;;;;;5046205;28;20192;-63
2022/01/28 04:31:45;;;;;;;5.83;1.30;;;5.20;99.90;;;;;;5047943;28;20737;-64
2022/01/28 04:34:15;;;;;;;7.53;1.90;;;5.20;99.90;;;;;;5046997;28;20628;-64
2022/01/28 04:48:06;;;;;;;11.33;1.83;;;5.00;99.90;;;;;;5037242;28;20238;-64
2022/01/28 05:00:50;;;;;;;3.87;1.20;;;5.00;99.90;;;;;;5042145;28;20180;-67
2022/01/28 05:03:39;;;;;;;6.87;1.70;;;5.00;99.90;;;;;;5048307;28;20694;-64
2022/01/28 05:27:15;;;;;;;6.20;1.50;;;4.40;99.90;;;;;;5041623;28;20203;-67
2022/01/28 05:29:41;;;;;;;8.67;1.30;;;4.50;99.90;;;;;;5036816;28;20267;-63
2022/01/28 05:32:10;;;;;;;6.27;2.03;;;4.50;99.90;;;;;;5036692;28;20665;-63
2022/01/28 05:34:37;;;;;;;6.17;2.13;;;4.60;99.90;;;;;;5036686;28;20690;-64
2022/01/28 05:37:03;;;;;;;5.03;1.10;;;4.60;99.90;;;;;;5039558;28;20575;-62
2022/01/28 05:39:29;;;;;;;5.63;1.77;;;4.60;99.90;;;;;;5038020;28;20203;-63
2022/01/28 05:41:55;;;;;;;7.43;2.43;;;4.60;99.90;;;;;;5039194;28;20179;-63
2022/01/28 05:44:21;;;;;;;3.33;1.63;;;4.70;99.90;;;;;;5034278;28;20182;-61
2022/01/28 05:46:47;;;;;;;8.73;2.07;;;4.60;99.90;;;;;;5038301;28;20217;-63
2022/01/28 05:49:14;;;;;;;2.20;1.20;;;4.60;99.90;;;;;;5039087;28;20265;-63
2022/01/28 05:51:43;;;;;;;5.13;2.07;;;4.70;99.90;;;;;;5037546;28;20177;-63
2022/01/28 05:54:10;;;;;;;5.73;1.77;;;4.60;99.90;;;;;;5037136;28;20176;-63
2022/01/28 05:56:36;;;;;;;8.17;2.03;;;4.70;99.90;;;;;;5037447;28;20639;-67
2022/01/28 05:59:01;;;;;;;4.97;1.73;;;4.70;99.90;;;;;;5036576;28;20172;-62
2022/01/28 06:01:27;;;;;;;8.40;2.03;;;4.60;99.90;;;;;;5038063;28;20178;-63
2022/01/28 06:03:53;;;;;;;7.20;1.87;;;4.60;99.90;;;;;;5036906;28;20173;-63
2022/01/28 06:06:19;;;;;;;6.60;2.07;;;4.60;99.90;;;;;;5036892;28;20224;-63
2022/01/28 06:08:46;;;;;;;3.27;1.20;;;4.60;99.90;;;;;;5036842;28;20272;-63
2022/01/28 06:11:12;;;;;;;14.40;2.00;;;4.60;99.90;;;;;;5036027;28;20253;-69
2022/01/28 06:13:37;;;;;;;7.07;1.80;;;4.60;99.90;;;;;;5038190;28;20634;-65
2022/01/28 06:16:03;;;;;;;6.30;1.70;;;4.60;99.90;;;;;;5040688;28;20266;-64
2022/01/28 06:18:29;;;;;;;3.83;1.50;;;4.60;99.90;;;;;;5039766;28;20203;-64
2022/01/28 06:20:54;;;;;;;6.43;1.70;;;4.70;99.90;;;;;;5042359;28;20536;-62
2022/01/28 06:23:20;;;;;;;5.13;1.83;;;4.70;99.90;;;;;;5034956;28;20285;-64
2022/01/28 06:25:47;;;;;;;5.03;2.00;;;4.70;99.90;;;;;;5039611;28;20201;-62
2022/01/28 06:28:12;;;;;;;10.57;1.70;;;4.60;99.90;;;;;;5039982;28;20694;-65
2022/01/28 06:30:38;;;;;;;7.53;2.13;;;4.70;99.90;;;;;;5035475;28;20173;-65
2022/01/28 06:33:04;;;;;;;7.90;2.60;;;4.70;99.90;;;;;;5039635;28;20190;-63
2022/01/28 06:35:29;;;;;;;5.53;1.63;;;4.60;99.90;;;;;;5039078;28;20193;-63
2022/01/28 06:37:55;;;;;;;14.30;2.30;;;4.60;99.90;;;;;;5038936;28;20884;-64
2022/01/28 06:40:20;;;;;;;7.87;1.63;;;4.60;99.90;;;;;;5048889;28;20192;-66
2022/01/28 06:42:46;;;;;;;5.27;1.83;;;4.60;99.90;;;;;;5041086;28;20189;-63
2022/01/28 06:45:12;;;;;;;13.40;2.23;;;4.60;99.90;;;;;;5040043;28;20183;-65
2022/01/28 06:47:38;;;;;;;6.20;1.87;;;4.70;99.90;;;;;;5036520;28;20738;-64
2022/01/28 06:50:06;;;;;;;5.70;1.97;;;4.60;99.90;;;;;;5043699;28;20265;-65
2022/01/28 06:52:32;;;;;;;6.57;1.97;;;4.60;99.90;;;;;;5037781;28;20180;-63
2022/01/28 06:54:58;;;;;;;6.80;1.27;;;4.50;99.90;;;;;;5039301;28;20198;-64
2022/01/28 06:57:24;;;;;;;11.10;2.00;;;4.70;99.90;;;;;;5044473;28;20197;-63
2022/01/28 06:59:49;;;;;;;5.83;1.70;;;4.70;99.90;;;;;;5040267;28;20535;-63
2022/01/28 07:02:15;;;;;;;6.77;1.63;;;4.90;99.90;;;;;;5031921;28;20187;-64
2022/01/28 07:04:40;;;;;;;6.00;1.93;;;4.70;99.90;;;;;;5038083;28;20616;-63
2022/01/28 07:07:06;;;;;;;7.77;1.90;;;4.60;99.90;;;;;;5041284;28;20269;-63
2022/01/28 07:09:34;;;;;;;9.13;2.00;;;4.60;99.90;;;;;;5032645;28;20584;-62
2022/01/28 07:11:59;;;;;;;5.43;2.13;;;4.60;99.90;;;;;;5038175;28;20588;-62
2022/01/28 07:14:25;;;;;;;7.83;2.23;;;4.60;99.90;;;;;;5037177;28;20268;-63
2022/01/28 07:16:51;;;;;;;5.20;1.70;;;4.60;99.90;;;;;;5038652;28;20185;-69
2022/01/28 07:19:16;;;;;;;11.13;2.77;;;4.70;99.90;;;;;;5037750;28;20573;-62
2022/01/28 07:21:42;;;;;;;6.57;2.63;;;4.60;99.90;;;;;;5032203;28;20195;-63
2022/01/28 07:24:07;;;;;;;10.03;2.40;;;4.70;99.90;;;;;;5039677;28;20180;-63
2022/01/28 07:26:33;;;;;;;9.03;2.80;;;4.70;99.90;;;;;;5037830;28;20234;-63
2022/01/28 07:28:58;;;;;;;8.07;2.53;;;4.70;99.90;;;;;;5036275;28;20193;-64
2022/01/28 07:31:24;;;;;;;5.83;2.00;;;4.60;99.90;;;;;;5044150;28;20239;-64
2022/01/28 07:33:50;;;;;;;10.97;2.63;;;4.60;99.90;;;;;;5042737;28;20279;-63
2022/01/28 07:36:15;;;;;;;9.37;2.27;;;4.60;99.90;;;;;;5041530;28;20254;-63
2022/01/28 07:38:41;;;;;;;7.23;2.70;;;4.60;99.90;;;;;;5044462;28;20181;-63
2022/01/28 07:41:07;;;;;;;5.43;1.93;;;4.70;99.90;;;;;;5038875;28;20580;-64
2022/01/28 07:43:37;;;;;;;8.27;1.83;;;4.70;99.90;;;;;;5043721;28;20183;-62
2022/01/28 07:46:04;;;;;;;11.23;2.20;;;4.70;99.90;;;;;;5042820;28;20669;-63
2022/01/28 07:48:29;;;;;;;11.77;2.07;;;4.70;99.90;;;;;;5042584;28;20181;-64
2022/01/28 07:50:55;;;;;;;11.30;2.20;;;4.70;99.90;;;;;;5039932;28;20190;-63
2022/01/28 07:53:21;;;;;;;7.53;1.53;;;4.80;99.90;;;;;;5041158;28;20618;-66
2022/01/28 07:55:47;;;;;;;10.37;2.07;;;4.70;99.90;;;;;;5075053;28;20473;-62
2022/01/28 07:58:12;;;;;;;7.60;1.83;;;4.70;99.90;;;;;;5042660;28;20657;-65
2022/01/28 08:00:38;;;;;;;12.73;2.07;;;4.60;99.90;;;;;;5037976;28;20603;-63
2022/01/28 08:03:04;;;;;;;5.17;1.80;;;4.60;99.90;;;;;;5042547;28;20185;-63
2022/01/28 08:05:30;;;;;;;7.97;2.10;;;4.60;99.90;;;;;;5041299;28;20186;-68
2022/01/28 08:07:56;;;;;;;6.63;2.00;;;4.60;99.90;;;;;;5031442;28;20571;-65
2022/01/28 08:10:21;;;;;;;7.63;2.27;;;4.60;99.90;;;;;;5039458;28;20185;-64
2022/01/28 08:12:48;;;;;;;11.80;2.13;;;4.60;99.90;;;;;;5032303;28;20200;-64
2022/01/28 08:15:15;;;;;;;9.90;2.03;;;4.70;99.90;;;;;;5037449;28;20190;-64
2022/01/28 08:17:41;;;;;;;7.30;1.63;;;4.70;99.90;;;;;;5042354;28;20207;-63
2022/01/28 08:20:08;;;;;;;5.23;1.63;;;4.80;99.90;;;;;;5041258;28;20187;-63
2022/01/28 08:22:50;;;;;;;9.17;2.10;;;4.80;99.90;;;;;;5039734;28;21586;-63
2022/01/28 08:25:16;;;;;;;7.10;1.90;;;4.80;99.90;;;;;;5037108;28;20187;-66
2022/01/28 08:27:44;;;;;;;9.10;1.87;;;4.80;99.90;;;;;;5036751;28;20203;-63
2022/01/28 08:30:12;;;;;;;9.70;1.87;;;4.80;99.90;;;;;;5041255;28;20183;-64
2022/01/28 08:32:38;;;;;;;7.73;2.07;;;4.90;99.90;;;;;;5038042;28;20201;-65
2022/01/28 08:35:04;;;;;;;7.50;2.03;;;4.90;99.90;;;;;;5039040;28;20184;-63
2022/01/28 08:37:30;;;;;;;4.23;1.60;;;4.80;99.90;;;;;;5039235;28;20238;-62
2022/01/28 08:39:55;;;;;;;5.67;1.97;;;4.80;99.90;;;;;;5037118;28;20193;-64
2022/01/28 08:42:21;;;;;;;6.50;1.70;;;4.80;99.90;;;;;;5035345;28;20176;-68
2022/01/28 08:44:47;;;;;;;7.43;1.83;;;4.70;99.90;;;;;;5038661;28;20180;-63
2022/01/28 08:47:14;;;;;;;6.87;2.30;;;4.70;99.90;;;;;;5040375;28;20658;-64
2022/01/28 08:49:39;;;;;;;6.97;2.00;;;4.70;99.90;;;;;;5036029;28;20662;-63
2022/01/28 08:52:05;;;;;;;4.87;1.90;;;4.70;99.90;;;;;;5041207;28;20204;-63
2022/01/28 08:54:31;;;;;;;12.93;2.27;;;4.70;99.90;;;;;;5041818;28;20519;-65
2022/01/28 08:56:57;;;;;;;8.73;2.10;;;4.70;99.90;;;;;;5039609;28;20399;-64
2022/01/28 08:59:22;;;;;;;8.87;2.00;;;4.70;99.90;;;;;;5039304;28;20264;-66
2022/01/28 09:01:48;;;;;;;7.13;2.03;;;4.60;99.90;;;;;;5037510;28;20584;-62
2022/01/28 09:04:13;;;;;;;4.00;1.70;;;4.60;99.90;;;;;;5039410;28;20185;-66
2022/01/28 09:06:39;;;;;;;5.03;1.67;;;4.60;99.90;;;;;;5037385;28;20207;-63
2022/01/28 09:09:05;;;;;;;8.07;2.37;;;4.70;99.90;;;;;;5042130;28;20687;-63
2022/01/28 09:11:34;;;;;;;9.10;2.73;;;4.60;99.90;;;;;;5039373;28;20187;-63
2022/01/28 09:14:00;;;;;;;10.80;2.60;;;4.60;99.90;;;;;;5039694;28;20171;-63
2022/01/28 09:16:26;;;;;;;7.70;2.47;;;4.70;99.90;;;;;;5041262;28;20253;-62
2022/01/28 09:18:52;;;;;;;13.27;2.60;;;4.70;99.90;;;;;;5038122;28;20182;-63
2022/01/28 09:21:19;;;;;;;6.97;1.27;;;4.70;99.90;;;;;;5048874;28;20186;-63
2022/01/28 09:23:46;;;;;;;8.57;2.17;;;4.70;99.90;;;;;;5041589;28;20185;-65
2022/01/28 09:26:13;;;;;;;10.03;1.97;;;4.80;99.90;;;;;;5040073;28;20197;-64
2022/01/28 09:28:40;;;;;;;10.40;2.30;;;4.80;99.90;;;;;;5041840;28;20193;-65
2022/01/28 09:31:05;;;;;;;10.83;2.87;;;4.80;99.90;;;;;;5039775;28;20180;-68
2022/01/28 09:33:31;;;;;;;6.53;2.10;;;4.80;99.90;;;;;;5036111;28;20560;-62
2022/01/28 09:35:57;;;;;;;7.53;1.90;;;4.80;99.90;;;;;;5042338;28;20629;-64
2022/01/28 09:38:23;;;;;;;16.17;3.13;;;4.80;99.90;;;;;;5038302;28;20647;-62
2022/01/28 09:40:50;;;;;;;11.20;2.60;;;4.80;99.90;;;;;;5040643;28;20221;-69
2022/01/28 09:43:16;;;;;;;5.70;2.00;;;4.80;99.90;;;;;;5041647;28;20179;-64
2022/01/28 09:45:45;;;;;;;8.27;2.20;;;4.80;99.90;;;;;;5041513;28;20213;-63
2022/01/28 09:48:11;;;;;;;10.13;2.40;;;4.70;99.90;;;;;;5040227;28;20203;-63
2022/01/28 09:50:36;;;;;;;11.33;2.53;;;4.80;99.90;;;;;;5050087;28;20252;-66
2022/01/28 09:53:03;;;;;;;10.67;2.83;;;4.80;99.90;;;;;;5047805;28;20184;-62
2022/01/28 09:55:29;;;;;;;12.47;2.30;;;4.90;99.90;;;;;;5048913;28;20644;-66
2022/01/28 09:57:59;;;;;;;8.40;2.80;;;4.80;99.90;;;;;;5053270;28;20188;-66
2022/01/28 10:00:26;;;;;;;10.87;2.70;;;4.80;99.90;;;;;;5043286;28;20175;-62
2022/01/28 10:02:53;;;;;;;9.83;1.80;;;4.90;99.90;;;;;;5040355;28;20199;-63
2022/01/28 10:05:27;;;;;;;10.67;1.97;;;4.80;99.90;;;;;;5039306;28;20187;-62
2022/01/28 10:08:18;;;;;;;10.70;2.07;;;4.90;99.90;;;;;;5041051;28;20192;-62
2022/01/28 10:10:53;;;;;;;13.90;2.50;;;4.90;99.90;;;;;;5037576;28;20608;-64
2022/01/28 10:13:38;;;;;;;11.60;2.73;;;4.90;99.90;;;;;;5039815;28;20626;-64
2022/01/28 10:16:16;;;;;;;8.07;2.17;;;4.80;99.90;;;;;;5039581;28;20191;-62
2022/01/28 10:18:49;;;;;;;5.47;2.03;;;4.90;99.90;;;;;;5039851;28;20176;-64
2022/01/28 10:21:37;;;;;;;10.07;2.33;;;4.90;99.90;;;;;;5040949;28;20553;-63
2022/01/28 10:24:06;;;;;;;7.73;2.10;;;4.90;99.90;;;;;;5039067;28;20207;-63
2022/01/28 10:26:37;;;;;;;7.67;1.63;;;4.90;99.90;;;;;;5034483;28;21939;-63
2022/01/28 10:29:05;;;;;;;9.80;2.57;;;4.90;99.90;;;;;;5033472;28;20286;-63
2022/01/28 10:31:42;;;;;;;11.10;2.80;;;4.90;99.90;;;;;;5036925;28;20254;-62
2022/01/28 10:34:45;;;;;;;6.90;1.80;;;5.00;99.90;;;;;;5045461;28;20209;-64
2022/01/28 10:37:28;;;;;;;8.90;1.73;;;4.90;99.90;;;;;;5035376;28;20246;-62
2022/01/28 10:40:02;;;;;;;8.47;2.20;;;4.90;99.90;;;;;;5036206;28;20185;-62
2022/01/28 10:42:36;;;;;;;11.00;2.20;;;4.90;99.90;;;;;;5039202;28;20191;-67
2022/01/28 10:45:11;;;;;;;16.60;2.43;;;4.90;99.90;;;;;;5040803;28;20184;-63
2022/01/28 10:47:45;;;;;;;10.13;2.27;;;5.00;99.90;;;;;;5043296;28;20238;-64
2022/01/28 10:50:27;;;;;;;16.77;2.37;;;4.90;99.90;;;;;;5038088;28;20199;-62
2022/01/28 10:53:13;;;;;;;14.17;2.70;;;4.90;99.90;;;;;;5038106;28;20526;-63
2022/01/28 10:55:43;;;;;;;9.67;2.50;;;4.90;99.90;;;;;;5036271;28;20266;-63
2022/01/28 10:58:11;;;;;;;14.53;3.10;;;5.00;99.90;;;;;;5029909;28;20252;-64
2022/01/28 11:00:43;;;;;;;19.70;2.73;;;4.90;99.90;;;;;;5042371;28;20182;-62
2022/01/28 11:03:11;;;;;;;8.47;2.13;;;5.00;99.90;;;;;;5042055;28;20183;-62
2022/01/28 11:06:12;;;;;;;16.57;2.57;;;5.00;99.90;;;;;;5041204;28;20198;-62
2022/01/28 11:08:38;;;;;;;12.23;2.73;;;5.00;99.90;;;;;;5034876;28;20206;-62
2022/01/28 11:11:03;;;;;;;15.83;2.37;;;5.00;99.90;;;;;;5051523;28;20180;-63
2022/01/28 11:13:29;;;;;;;12.90;2.30;;;5.00;99.90;;;;;;5030831;28;20245;-63
2022/01/28 11:15:55;;;;;;;12.07;3.23;;;5.00;99.90;;;;;;5033279;28;20184;-63
2022/01/28 11:18:21;;;;;;;14.70;3.33;;;5.10;99.90;;;;;;5032751;28;20178;-62
2022/01/28 11:20:54;;;;;;;7.93;2.50;;;5.10;99.90;;;;;;5043534;28;20352;-62
2022/01/28 11:23:31;;;;;;;18.03;4.17;;;5.10;99.90;;;;;;5061003;28;20229;-62
2022/01/28 11:25:57;;;;;;;11.27;3.10;;;5.10;99.90;;;;;;5063199;28;20200;-62
2022/01/28 11:28:48;;;;;;;12.83;3.53;;;5.10;99.90;;;;;;5059971;28;20171;-62
2022/01/28 11:31:14;;;;;;;17.53;3.70;;;5.20;99.90;;;;;;5051231;28;20186;-62
2022/01/28 11:33:44;;;;;;;9.63;2.20;;;5.20;99.90;;;;;;5062636;28;20181;-72
2022/01/28 11:36:10;;;;;;;8.03;2.23;;;5.20;99.90;;;;;;5047091;28;20273;-62
2022/01/28 11:38:39;;;;;;;9.47;2.67;;;5.30;99.90;;;;;;5044403;28;20258;-66
2022/01/28 11:41:21;;;;;;;9.73;2.43;;;5.20;99.90;;;;;;5044898;28;20188;-62
2022/01/28 11:43:55;;;;;;;9.77;2.77;;;5.30;99.90;;;;;;5050078;28;20186;-63
2022/01/28 11:46:27;;;;;;;13.43;2.47;;;5.20;99.90;;;;;;5054182;28;20560;-63
2022/01/28 11:48:54;;;;;;;13.80;2.77;;;5.20;99.90;;;;;;5032807;28;20182;-63
2022/01/28 11:51:40;;;;;;;9.80;2.53;;;5.20;99.90;;;;;;5040432;28;20175;-63
2022/01/28 11:54:07;;;;;;;7.83;2.33;;;5.30;99.90;;;;;;5042531;28;20187;-66
2022/01/28 11:56:36;;;;;;;11.40;2.33;;;5.30;99.90;;;;;;5034428;28;20588;-67
2022/01/28 11:59:09;;;;;;;10.97;2.43;;;5.20;99.90;;;;;;5033724;28;20226;-62
2022/01/28 12:01:38;;;;;;;4.63;1.53;;;5.20;99.90;;;;;;5035455;28;20531;-67
2022/01/28 12:04:26;;;;;;;12.57;2.63;;;5.20;99.90;;;;;;5040951;28;20323;-62
2022/01/28 12:06:57;;;;;;;8.33;2.10;;;5.20;99.90;;;;;;5040201;28;20238;-64
2022/01/28 12:09:25;;;;;;;13.43;3.07;;;5.20;99.90;;;;;;5044673;28;20214;-64
2022/01/28 12:11:51;;;;;;;7.37;2.20;;;5.30;99.90;;;;;;5041830;28;20204;-65
2022/01/28 12:14:17;;;;;;;4.53;2.00;;;5.30;99.90;;;;;;5041217;28;20191;-63
2022/01/28 12:16:46;;;;;;;12.70;2.77;;;5.40;99.90;;;;;;5042568;28;20262;-67
2022/01/28 12:19:19;;;;;;;8.27;2.40;;;5.30;99.90;;;;;;5045126;28;20173;-63
2022/01/28 12:22:08;;;;;;;9.77;2.20;;;5.30;99.90;;;;;;5039906;28;20533;-70
2022/01/28 12:24:35;;;;;;;8.83;1.97;;;5.40;99.90;;;;;;5046561;28;20183;-64
2022/01/28 12:27:02;;;;;;;5.30;1.80;;;5.50;99.90;;;;;;5034713;28;20219;-62
2022/01/28 12:29:29;;;;;;;10.50;2.30;;;5.40;99.90;;;;;;5038322;28;20623;-71
2022/01/28 12:31:57;;;;;;;11.13;3.10;;;5.40;99.90;;;;;;5035704;28;20582;-62
2022/01/28 12:34:23;;;;;;;8.20;2.07;;;5.40;99.90;;;;;;5038507;28;20183;-63
2022/01/28 12:36:49;;;;;;;5.83;2.30;;;5.40;99.90;;;;;;5043937;28;20221;-62
2022/01/28 12:39:21;;;;;;;6.33;1.63;;;5.40;99.90;;;;;;5043222;28;20249;-63
2022/01/28 12:42:05;;;;;;;13.50;2.73;;;5.50;99.90;;;;;;5035994;28;20348;-64
2022/01/28 12:44:32;;;;;;;14.57;2.07;;;5.50;99.90;;;;;;5038930;28;20232;-63
2022/01/28 12:47:02;;;;;;;8.20;1.80;;;5.70;99.90;;;;;;5037646;28;20200;-64
2022/01/28 12:49:31;;;;;;;13.83;2.37;;;5.70;99.90;;;;;;5040074;28;20275;-64
2022/01/28 12:52:00;;;;;;;5.20;1.60;;;5.70;99.90;;;;;;5034721;28;20196;-63
2022/01/28 12:54:55;;;;;;;11.47;1.97;;;5.80;99.90;;;;;;5038877;28;20172;-61
2022/01/28 12:57:22;;;;;;;13.67;2.73;;;5.70;99.90;;;;;;5035141;28;20213;-63
2022/01/28 12:59:49;;;;;;;11.50;2.37;;;5.80;99.90;;;;;;5036847;28;20191;-62
2022/01/28 13:02:16;;;;;;;5.77;2.27;;;5.80;99.90;;;;;;5041262;28;20181;-63
2022/01/28 13:10:33;;;;;;;12.07;3.50;;;6.00;99.90;;;;;;5053152;28;20195;-62
2022/01/28 13:13:10;;;;;;;9.63;1.63;;;5.80;99.90;;;;;;5054157;28;20167;-63
2022/01/28 13:15:37;;;;;;;15.20;2.93;;;5.80;99.90;;;;;;5049441;28;20258;-63
2022/01/28 13:18:04;;;;;;;8.43;2.03;;;5.80;99.90;;;;;;5044204;28;20191;-62
2022/01/28 13:20:39;;;;;;;14.67;2.00;;;5.90;99.90;;;;;;5033393;28;20501;-62
2022/01/28 13:23:06;;;;;;;10.67;2.43;;;5.90;99.90;;;;;;5026636;28;20192;-62
2022/01/28 13:25:32;;;;;;;9.47;2.10;;;6.00;99.90;;;;;;5033280;28;20193;-63
2022/01/28 13:28:01;;;;;;;5.07;2.30;;;6.00;99.90;;;;;;5034066;28;20169;-64
2022/01/28 13:30:28;;;;;;;12.20;2.03;;;6.00;99.90;;;;;;5036665;28;20168;-63
2022/01/28 13:33:02;;;;;;;15.37;2.13;;;6.10;99.90;;;;;;5034375;28;20169;-63
2022/01/28 13:35:28;;;;;;;17.30;2.50;;;6.00;99.90;;;;;;5054923;28;20182;-62
2022/01/28 13:38:01;;;;;;;7.93;2.47;;;6.10;99.90;;;;;;5054433;28;20234;-63
2022/01/28 13:40:29;;;;;;;9.80;3.00;;;6.10;99.90;;;;;;5053752;28;20519;-64
2022/01/28 13:43:22;;;;;;;6.87;2.10;;;6.10;99.90;;;;;;5055923;28;20217;-62
2022/01/28 13:46:05;;;;;;;14.73;2.47;;;6.10;99.90;;;;;;5038625;28;20279;-63
2022/01/28 13:48:34;;;;;;;12.13;2.37;;;6.00;99.90;;;;;;5036320;28;20473;-62
2022/01/28 13:51:16;;;;;;;8.77;1.77;;;5.90;99.90;;;;;;5035377;28;20674;-62
2022/01/28 13:56:34;;;;;;;10.70;2.23;;;5.80;99.90;;;;;;5036549;28;20158;-63
2022/01/28 13:59:00;;;;;;;11.40;2.73;;;5.60;99.90;;;;;;5036446;28;20167;-62
2022/01/28 14:01:28;;;;;;;11.83;2.87;;;5.70;99.90;;;;;;5035712;28;20162;-61
2022/01/28 14:03:55;;;;;;;12.30;2.63;;;5.80;99.90;;;;;;5048274;28;20461;-62
2022/01/28 14:06:30;;;;;;;8.97;2.37;;;5.70;99.90;;;;;;5050950;28;20238;-62
2022/01/28 14:09:10;;;;;;;6.33;2.57;;;5.70;99.90;;;;;;5040160;28;20216;-63
2022/01/28 14:11:42;;;;;;;8.00;2.73;;;5.70;99.90;;;;;;5041908;28;20160;-63
2022/01/28 14:14:16;;;;;;;12.03;2.47;;;5.70;99.90;;;;;;5037948;28;20186;-64
2022/01/28 14:16:44;;;;;;;5.50;2.43;;;5.60;99.90;;;;;;5043129;28;20192;-62
2022/01/28 14:19:10;;;;;;;7.57;2.30;;;5.70;99.90;;;;;;5061572;28;20623;-61
2022/01/28 14:21:37;;;;;;;6.77;2.20;;;5.70;99.90;;;;;;5041438;28;20177;-62
2022/01/28 14:24:03;;;;;;;8.00;2.10;;;5.60;99.90;;;;;;5034008;28;20165;-63
2022/01/28 14:26:30;;;;;;;15.37;3.10;;;5.60;99.90;;;;;;5031525;28;20311;-63
2022/01/28 14:31:25;;;;;;;16.80;2.57;;;5.60;99.90;;;;;;5033658;28;20158;-63
2022/01/28 14:33:51;;;;;;;11.23;2.00;;;5.70;99.90;;;;;;5029474;28;20181;-62
2022/01/28 14:36:17;;;;;;;9.50;2.17;;;5.60;99.90;;;;;;5033648;28;20698;-63
2022/01/28 14:38:46;;;;;;;8.93;2.20;;;5.60;99.90;;;;;;5032514;28;20518;-71
2022/01/28 14:41:12;;;;;;;10.60;2.43;;;5.60;99.90;;;;;;5033169;28;20166;-64
2022/01/28 14:43:37;;;;;;;5.83;2.30;;;5.60;99.90;;;;;;5031584;28;20363;-64
2022/01/28 14:46:03;;;;;;;7.93;2.07;;;5.60;99.90;;;;;;5033141;28;20556;-63